Ilford, United Kingdom
Current Conditions -  °F | °C
As of 10:20 AM on Monday 22 Dec 2014 (Local Time) from EGLC Reporting Station
Broken Clouds Broken Clouds  
Wind Chill: 57°   Ceiling: 2500
Heat Index: 57°   Visibility: 6mi
Dew Point: 46°   Wind: 23mph
Humidity: 67%   Direction: 250°WSW
Pressure: 30.06"   Gusts: NA
Location:  51.56°N, 0.07°E
Report Text: EGLC 221020Z 25020KT 9999 BKN025 14/08 Q1018
Loading
Personal Weather Stations






























Interactive Weather Map New forecast layout! Learn more

10-Day Weather Forecast

Advertisements
Track Severe Weather on mobile